sensor_id;sensor_type;location;lat;lon;timestamp;temperature;humidity
4501;DHT22;2263;54.654;9.410;2022-10-26T00:01:09;13.30;91.00
4501;DHT22;2263;54.654;9.410;2022-10-26T00:03:37;13.30;91.00
4501;DHT22;2263;54.654;9.410;2022-10-26T00:08:39;13.30;91.00
4501;DHT22;2263;54.654;9.410;2022-10-26T00:11:07;13.30;91.00
4501;DHT22;2263;54.654;9.410;2022-10-26T00:13:35;13.30;91.00
4501;DHT22;2263;54.654;9.410;2022-10-26T00:16:10;13.20;91.00
4501;DHT22;2263;54.654;9.410;2022-10-26T00:18:38;13.20;91.00
4501;DHT22;2263;54.654;9.410;2022-10-26T00:21:06;13.30;91.10
4501;DHT22;2263;54.654;9.410;2022-10-26T00:23:33;13.20;91.00
4501;DHT22;2263;54.654;9.410;2022-10-26T00:26:01;13.20;91.00
4501;DHT22;2263;54.654;9.410;2022-10-26T00:28:28;13.20;91.00
4501;DHT22;2263;54.654;9.410;2022-10-26T00:31:06;13.20;91.00
4501;DHT22;2263;54.654;9.410;2022-10-26T00:33:35;13.20;91.00
4501;DHT22;2263;54.654;9.410;2022-10-26T00:36:02;13.20;91.10
4501;DHT22;2263;54.654;9.410;2022-10-26T00:38:30;13.20;91.10
4501;DHT22;2263;54.654;9.410;2022-10-26T00:40:57;13.20;91.10
4501;DHT22;2263;54.654;9.410;2022-10-26T00:45:54;13.20;91.10
4501;DHT22;2263;54.654;9.410;2022-10-26T00:48:27;13.20;91.10
4501;DHT22;2263;54.654;9.410;2022-10-26T00:50:57;13.20;91.10
4501;DHT22;2263;54.654;9.410;2022-10-26T00:53:26;13.20;91.20
4501;DHT22;2263;54.654;9.410;2022-10-26T00:55:55;13.20;91.20
4501;DHT22;2263;54.654;9.410;2022-10-26T00:58:24;13.20;91.20
4501;DHT22;2263;54.654;9.410;2022-10-26T01:00:52;13.20;91.20
4501;DHT22;2263;54.654;9.410;2022-10-26T01:03:19;13.20;91.30
4501;DHT22;2263;54.654;9.410;2022-10-26T01:05:54;13.20;91.20
4501;DHT22;2263;54.654;9.410;2022-10-26T01:08:23;13.20;91.30
4501;DHT22;2263;54.654;9.410;2022-10-26T01:10:51;13.10;91.20
4501;DHT22;2263;54.654;9.410;2022-10-26T01:13:18;13.10;91.30
4501;DHT22;2263;54.654;9.410;2022-10-26T01:16:06;13.20;91.30
4501;DHT22;2263;54.654;9.410;2022-10-26T01:22:13;13.10;91.30
4501;DHT22;2263;54.654;9.410;2022-10-26T01:38:05;13.10;91.30
4501;DHT22;2263;54.654;9.410;2022-10-26T01:40:42;13.10;91.30
4501;DHT22;2263;54.654;9.410;2022-10-26T01:43:12;13.10;91.40
4501;DHT22;2263;54.654;9.410;2022-10-26T01:45:44;13.00;91.30
4501;DHT22;2263;54.654;9.410;2022-10-26T01:48:17;13.10;91.40
4501;DHT22;2263;54.654;9.410;2022-10-26T01:50:47;13.10;91.40
4501;DHT22;2263;54.654;9.410;2022-10-26T01:53:16;13.10;91.30
4501;DHT22;2263;54.654;9.410;2022-10-26T01:55:50;13.10;91.40
4501;DHT22;2263;54.654;9.410;2022-10-26T02:03:45;13.00;91.40
4501;DHT22;2263;54.654;9.410;2022-10-26T02:06:18;13.00;91.40
4501;DHT22;2263;54.654;9.410;2022-10-26T02:08:57;13.00;91.40
4501;DHT22;2263;54.654;9.410;2022-10-26T02:14:17;13.00;91.40
4501;DHT22;2263;54.654;9.410;2022-10-26T02:22:34;13.00;91.50
4501;DHT22;2263;54.654;9.410;2022-10-26T02:25:15;13.00;91.80
4501;DHT22;2263;54.654;9.410;2022-10-26T02:27:46;13.00;91.50
4501;DHT22;2263;54.654;9.410;2022-10-26T02:30:16;13.00;91.50
4501;DHT22;2263;54.654;9.410;2022-10-26T02:32:47;13.00;91.50
4501;DHT22;2263;54.654;9.410;2022-10-26T02:35:16;13.00;91.50
4501;DHT22;2263;54.654;9.410;2022-10-26T02:37:46;12.90;91.80
4501;DHT22;2263;54.654;9.410;2022-10-26T02:40:18;12.90;91.70
4501;DHT22;2263;54.654;9.410;2022-10-26T02:42:46;12.90;91.70
4501;DHT22;2263;54.654;9.410;2022-10-26T02:45:20;12.90;91.70
4501;DHT22;2263;54.654;9.410;2022-10-26T02:47:49;12.90;91.60
4501;DHT22;2263;54.654;9.410;2022-10-26T02:50:21;12.90;91.60
4501;DHT22;2263;54.654;9.410;2022-10-26T02:55:24;12.90;91.70
4501;DHT22;2263;54.654;9.410;2022-10-26T02:57:59;12.90;91.70
4501;DHT22;2263;54.654;9.410;2022-10-26T03:00:28;12.90;91.60
4501;DHT22;2263;54.654;9.410;2022-10-26T03:02:57;12.90;91.80
4501;DHT22;2263;54.654;9.410;2022-10-26T03:05:27;12.80;91.70
4501;DHT22;2263;54.654;9.410;2022-10-26T03:07:56;12.90;91.70
4501;DHT22;2263;54.654;9.410;2022-10-26T03:10:24;12.90;91.70
4501;DHT22;2263;54.654;9.410;2022-10-26T03:12:51;12.90;91.60
4501;DHT22;2263;54.654;9.410;2022-10-26T03:15:19;12.90;91.60
4501;DHT22;2263;54.654;9.410;2022-10-26T03:17:46;12.90;91.60
4501;DHT22;2263;54.654;9.410;2022-10-26T03:20:14;12.90;91.60
4501;DHT22;2263;54.654;9.410;2022-10-26T03:22:41;12.80;91.60
4501;DHT22;2263;54.654;9.410;2022-10-26T03:25:09;12.90;91.60
4501;DHT22;2263;54.654;9.410;2022-10-26T03:27:36;12.80;91.60
4501;DHT22;2263;54.654;9.410;2022-10-26T03:30:04;12.80;91.60
4501;DHT22;2263;54.654;9.410;2022-10-26T03:32:31;12.80;91.60
4501;DHT22;2263;54.654;9.410;2022-10-26T03:34:58;12.80;91.60
4501;DHT22;2263;54.654;9.410;2022-10-26T03:37:26;12.80;91.50
4501;DHT22;2263;54.654;9.410;2022-10-26T03:39:53;12.80;91.60
4501;DHT22;2263;54.654;9.410;2022-10-26T03:42:20;12.80;91.50
4501;DHT22;2263;54.654;9.410;2022-10-26T03:44:47;12.80;91.50
4501;DHT22;2263;54.654;9.410;2022-10-26T03:47:14;12.70;91.50
4501;DHT22;2263;54.654;9.410;2022-10-26T03:49:42;12.80;91.50
4501;DHT22;2263;54.654;9.410;2022-10-26T03:52:09;12.70;91.40
4501;DHT22;2263;54.654;9.410;2022-10-26T03:54:36;12.70;91.40
4501;DHT22;2263;54.654;9.410;2022-10-26T03:57:03;12.70;91.30
4501;DHT22;2263;54.654;9.410;2022-10-26T03:59:30;12.70;91.30
4501;DHT22;2263;54.654;9.410;2022-10-26T04:01:57;12.70;91.30
4501;DHT22;2263;54.654;9.410;2022-10-26T04:04:24;12.60;91.20
4501;DHT22;2263;54.654;9.410;2022-10-26T04:06:52;12.70;91.20
4501;DHT22;2263;54.654;9.410;2022-10-26T04:09:19;12.60;91.20
4501;DHT22;2263;54.654;9.410;2022-10-26T04:11:46;12.60;91.20
4501;DHT22;2263;54.654;9.410;2022-10-26T04:14:13;12.60;91.10
4501;DHT22;2263;54.654;9.410;2022-10-26T04:16:40;12.60;91.10
4501;DHT22;2263;54.654;9.410;2022-10-26T04:19:07;12.60;91.20
4501;DHT22;2263;54.654;9.410;2022-10-26T04:21:35;12.60;91.10
4501;DHT22;2263;54.654;9.410;2022-10-26T04:24:02;12.60;91.00
4501;DHT22;2263;54.654;9.410;2022-10-26T04:26:29;12.50;91.00
4501;DHT22;2263;54.654;9.410;2022-10-26T04:28:56;12.50;91.00
4501;DHT22;2263;54.654;9.410;2022-10-26T04:31:23;12.50;91.00
4501;DHT22;2263;54.654;9.410;2022-10-26T04:33:50;12.50;91.00
4501;DHT22;2263;54.654;9.410;2022-10-26T04:36:17;12.50;91.00
4501;DHT22;2263;54.654;9.410;2022-10-26T04:38:46;12.50;90.90
4501;DHT22;2263;54.654;9.410;2022-10-26T04:41:13;12.50;91.00
4501;DHT22;2263;54.654;9.410;2022-10-26T04:43:41;12.50;91.00
4501;DHT22;2263;54.654;9.410;2022-10-26T04:46:08;12.50;91.00
4501;DHT22;2263;54.654;9.410;2022-10-26T04:48:39;12.40;90.90
4501;DHT22;2263;54.654;9.410;2022-10-26T04:51:08;12.40;91.00
4501;DHT22;2263;54.654;9.410;2022-10-26T04:53:35;12.40;91.00
4501;DHT22;2263;54.654;9.410;2022-10-26T04:56:02;12.40;91.00
4501;DHT22;2263;54.654;9.410;2022-10-26T04:58:29;12.40;91.00
4501;DHT22;2263;54.654;9.410;2022-10-26T05:00:56;12.40;91.00
4501;DHT22;2263;54.654;9.410;2022-10-26T05:03:24;12.40;91.00
4501;DHT22;2263;54.654;9.410;2022-10-26T05:05:51;12.40;91.00
4501;DHT22;2263;54.654;9.410;2022-10-26T05:08:18;12.40;91.00
4501;DHT22;2263;54.654;9.410;2022-10-26T05:10:49;12.40;91.00
4501;DHT22;2263;54.654;9.410;2022-10-26T05:13:16;12.40;91.00
4501;DHT22;2263;54.654;9.410;2022-10-26T05:15:43;12.40;91.00
4501;DHT22;2263;54.654;9.410;2022-10-26T05:18:10;12.30;91.00
4501;DHT22;2263;54.654;9.410;2022-10-26T05:20:38;12.30;91.00
4501;DHT22;2263;54.654;9.410;2022-10-26T05:23:10;12.30;90.90
4501;DHT22;2263;54.654;9.410;2022-10-26T05:25:38;12.30;90.90
4501;DHT22;2263;54.654;9.410;2022-10-26T05:28:08;12.30;91.00
4501;DHT22;2263;54.654;9.410;2022-10-26T05:30:38;12.30;90.90
4501;DHT22;2263;54.654;9.410;2022-10-26T05:33:05;12.30;90.90
4501;DHT22;2263;54.654;9.410;2022-10-26T05:35:33;12.30;90.90
4501;DHT22;2263;54.654;9.410;2022-10-26T05:38:07;12.30;91.00
4501;DHT22;2263;54.654;9.410;2022-10-26T05:40:34;12.30;91.20
4501;DHT22;2263;54.654;9.410;2022-10-26T05:43:02;12.30;91.00
4501;DHT22;2263;54.654;9.410;2022-10-26T05:45:29;12.30;90.90
4501;DHT22;2263;54.654;9.410;2022-10-26T05:47:56;12.30;90.90
4501;DHT22;2263;54.654;9.410;2022-10-26T05:50:29;12.30;90.90
4501;DHT22;2263;54.654;9.410;2022-10-26T05:52:56;12.30;91.00
4501;DHT22;2263;54.654;9.410;2022-10-26T05:55:23;12.30;91.00
4501;DHT22;2263;54.654;9.410;2022-10-26T05:57:51;12.30;91.00
4501;DHT22;2263;54.654;9.410;2022-10-26T06:00:23;12.30;91.00
4501;DHT22;2263;54.654;9.410;2022-10-26T06:05:54;12.30;91.00
4501;DHT22;2263;54.654;9.410;2022-10-26T06:08:23;12.20;90.90
4501;DHT22;2263;54.654;9.410;2022-10-26T06:10:52;12.20;90.90
4501;DHT22;2263;54.654;9.410;2022-10-26T06:13:20;12.20;90.90
4501;DHT22;2263;54.654;9.410;2022-10-26T06:19:12;12.20;91.30
4501;DHT22;2263;54.654;9.410;2022-10-26T06:24:32;12.20;91.30
4501;DHT22;2263;54.654;9.410;2022-10-26T06:30:05;12.20;91.00
4501;DHT22;2263;54.654;9.410;2022-10-26T06:32:33;12.20;91.00
4501;DHT22;2263;54.654;9.410;2022-10-26T06:37:44;12.20;91.00
4501;DHT22;2263;54.654;9.410;2022-10-26T06:40:14;12.20;91.00
4501;DHT22;2263;54.654;9.410;2022-10-26T06:42:42;12.20;91.00
4501;DHT22;2263;54.654;9.410;2022-10-26T06:45:13;12.20;91.10
4501;DHT22;2263;54.654;9.410;2022-10-26T06:48:03;12.20;91.10
4501;DHT22;2263;54.654;9.410;2022-10-26T06:50:50;12.20;91.00
4501;DHT22;2263;54.654;9.410;2022-10-26T06:53:22;12.20;91.00
4501;DHT22;2263;54.654;9.410;2022-10-26T06:55:54;12.10;91.00
4501;DHT22;2263;54.654;9.410;2022-10-26T06:58:29;12.10;91.00
4501;DHT22;2263;54.654;9.410;2022-10-26T07:00:57;12.10;91.00
4501;DHT22;2263;54.654;9.410;2022-10-26T07:03:24;12.10;91.00
4501;DHT22;2263;54.654;9.410;2022-10-26T07:05:51;12.10;91.10
4501;DHT22;2263;54.654;9.410;2022-10-26T07:08:18;12.10;91.00
4501;DHT22;2263;54.654;9.410;2022-10-26T07:49:00;12.20;91.20
4501;DHT22;2263;54.654;9.410;2022-10-26T07:51:27;12.20;91.10
4501;DHT22;2263;54.654;9.410;2022-10-26T07:53:54;12.20;91.20
4501;DHT22;2263;54.654;9.410;2022-10-26T07:56:22;12.20;91.30
4501;DHT22;2263;54.654;9.410;2022-10-26T07:58:51;12.20;91.30
4501;DHT22;2263;54.654;9.410;2022-10-26T08:01:19;12.20;91.30
4501;DHT22;2263;54.654;9.410;2022-10-26T08:03:46;12.20;91.20
4501;DHT22;2263;54.654;9.410;2022-10-26T08:06:13;12.20;91.20
4501;DHT22;2263;54.654;9.410;2022-10-26T08:08:41;12.30;91.40
4501;DHT22;2263;54.654;9.410;2022-10-26T08:11:13;12.30;91.30
4501;DHT22;2263;54.654;9.410;2022-10-26T08:13:41;12.30;91.40
4501;DHT22;2263;54.654;9.410;2022-10-26T08:16:08;12.30;91.30
4501;DHT22;2263;54.654;9.410;2022-10-26T08:18:35;12.30;91.30
4501;DHT22;2263;54.654;9.410;2022-10-26T08:21:05;12.30;91.30
4501;DHT22;2263;54.654;9.410;2022-10-26T08:23:37;12.30;91.30
4501;DHT22;2263;54.654;9.410;2022-10-26T08:26:05;12.40;91.30
4501;DHT22;2263;54.654;9.410;2022-10-26T08:28:32;12.40;91.30
4501;DHT22;2263;54.654;9.410;2022-10-26T08:31:00;12.40;91.40
4501;DHT22;2263;54.654;9.410;2022-10-26T08:33:27;12.50;91.40
4501;DHT22;2263;54.654;9.410;2022-10-26T08:36:00;12.50;91.40
4501;DHT22;2263;54.654;9.410;2022-10-26T08:38:28;12.50;91.50
4501;DHT22;2263;54.654;9.410;2022-10-26T08:40:56;12.60;91.50
4501;DHT22;2263;54.654;9.410;2022-10-26T08:43:30;12.60;91.50
4501;DHT22;2263;54.654;9.410;2022-10-26T08:46:40;12.60;91.60
4501;DHT22;2263;54.654;9.410;2022-10-26T08:49:19;12.70;92.10
4501;DHT22;2263;54.654;9.410;2022-10-26T08:51:53;12.80;92.00
4501;DHT22;2263;54.654;9.410;2022-10-26T08:54:31;12.80;92.40
4501;DHT22;2263;54.654;9.410;2022-10-26T08:57:03;12.80;92.50
4501;DHT22;2263;54.654;9.410;2022-10-26T09:00:05;12.90;92.80
4501;DHT22;2263;54.654;9.410;2022-10-26T09:02:36;12.90;93.00
4501;DHT22;2263;54.654;9.410;2022-10-26T09:05:15;13.00;92.60
4501;DHT22;2263;54.654;9.410;2022-10-26T09:07:57;13.10;93.20
4501;DHT22;2263;54.654;9.410;2022-10-26T09:10:39;13.00;92.90
4501;DHT22;2263;54.654;9.410;2022-10-26T09:13:14;13.20;93.20
4501;DHT22;2263;54.654;9.410;2022-10-26T09:24:35;13.60;93.40
4501;DHT22;2263;54.654;9.410;2022-10-26T09:29:13;13.60;93.00
4501;DHT22;2263;54.654;9.410;2022-10-26T09:31:43;13.70;93.10
4501;DHT22;2263;54.654;9.410;2022-10-26T09:34:58;13.80;93.10
4501;DHT22;2263;54.654;9.410;2022-10-26T09:37:22;13.80;93.10
4501;DHT22;2263;54.654;9.410;2022-10-26T09:42:58;13.70;93.00
4501;DHT22;2263;54.654;9.410;2022-10-26T09:45:34;13.80;92.80
4501;DHT22;2263;54.654;9.410;2022-10-26T09:50:48;13.80;92.60
4501;DHT22;2263;54.654;9.410;2022-10-26T09:53:17;13.80;92.50
4501;DHT22;2263;54.654;9.410;2022-10-26T09:55:46;13.80;92.90
4501;DHT22;2263;54.654;9.410;2022-10-26T09:58:21;13.80;92.50
4501;DHT22;2263;54.654;9.410;2022-10-26T10:00:51;13.80;92.50
4501;DHT22;2263;54.654;9.410;2022-10-26T10:03:30;14.00;92.90
4501;DHT22;2263;54.654;9.410;2022-10-26T10:06:18;14.10;92.90
4501;DHT22;2263;54.654;9.410;2022-10-26T10:11:56;14.30;93.10
4501;DHT22;2263;54.654;9.410;2022-10-26T10:14:29;14.30;92.90
4501;DHT22;2263;54.654;9.410;2022-10-26T10:17:07;14.40;92.70
4501;DHT22;2263;54.654;9.410;2022-10-26T10:19:46;14.40;92.60
4501;DHT22;2263;54.654;9.410;2022-10-26T10:25:02;14.40;92.70
4501;DHT22;2263;54.654;9.410;2022-10-26T10:27:30;14.40;92.30
4501;DHT22;2263;54.654;9.410;2022-10-26T10:30:23;14.50;92.30
4501;DHT22;2263;54.654;9.410;2022-10-26T10:33:12;14.50;91.90
4501;DHT22;2263;54.654;9.410;2022-10-26T10:35:49;14.40;92.00
4501;DHT22;2263;54.654;9.410;2022-10-26T10:38:20;14.40;92.10
4501;DHT22;2263;54.654;9.410;2022-10-26T10:40:55;14.40;92.20
4501;DHT22;2263;54.654;9.410;2022-10-26T10:43:23;14.40;92.10
4501;DHT22;2263;54.654;9.410;2022-10-26T10:45:53;14.40;92.20
4501;DHT22;2263;54.654;9.410;2022-10-26T10:48:28;14.40;92.20
4501;DHT22;2263;54.654;9.410;2022-10-26T10:51:04;14.40;92.20
4501;DHT22;2263;54.654;9.410;2022-10-26T10:53:45;14.50;92.30
4501;DHT22;2263;54.654;9.410;2022-10-26T10:56:21;14.50;92.30
4501;DHT22;2263;54.654;9.410;2022-10-26T11:07:10;14.50;92.20
4501;DHT22;2263;54.654;9.410;2022-10-26T11:09:40;14.50;92.30
4501;DHT22;2263;54.654;9.410;2022-10-26T11:12:32;14.50;92.30
4501;DHT22;2263;54.654;9.410;2022-10-26T11:15:11;14.50;92.30
4501;DHT22;2263;54.654;9.410;2022-10-26T11:17:54;14.50;92.20
4501;DHT22;2263;54.654;9.410;2022-10-26T11:20:23;14.50;92.20
4501;DHT22;2263;54.654;9.410;2022-10-26T11:31:16;14.60;92.20
4501;DHT22;2263;54.654;9.410;2022-10-26T11:34:04;14.60;92.20
4501;DHT22;2263;54.654;9.410;2022-10-26T11:36:36;14.60;92.10
4501;DHT22;2263;54.654;9.410;2022-10-26T11:41:48;14.60;92.10
4501;DHT22;2263;54.654;9.410;2022-10-26T11:50:22;14.60;92.10
4501;DHT22;2263;54.654;9.410;2022-10-26T11:53:11;14.60;92.10
4501;DHT22;2263;54.654;9.410;2022-10-26T11:55:41;14.60;92.10
4501;DHT22;2263;54.654;9.410;2022-10-26T11:58:10;14.60;92.10
4501;DHT22;2263;54.654;9.410;2022-10-26T12:01:03;14.60;92.10
4501;DHT22;2263;54.654;9.410;2022-10-26T12:03:37;14.60;92.10
4501;DHT22;2263;54.654;9.410;2022-10-26T12:06:09;14.60;92.10
4501;DHT22;2263;54.654;9.410;2022-10-26T12:08:42;14.60;92.10
4501;DHT22;2263;54.654;9.410;2022-10-26T12:16:54;14.70;92.20
4501;DHT22;2263;54.654;9.410;2022-10-26T12:19:41;14.70;92.20
4501;DHT22;2263;54.654;9.410;2022-10-26T12:22:13;14.70;92.10
4501;DHT22;2263;54.654;9.410;2022-10-26T12:24:45;14.70;92.00
4501;DHT22;2263;54.654;9.410;2022-10-26T12:30:26;14.70;92.30
4501;DHT22;2263;54.654;9.410;2022-10-26T12:32:59;14.70;92.00
4501;DHT22;2263;54.654;9.410;2022-10-26T12:43:38;14.80;91.90
4501;DHT22;2263;54.654;9.410;2022-10-26T12:56:41;14.80;92.00
4501;DHT22;2263;54.654;9.410;2022-10-26T13:07:12;14.80;91.90
4501;DHT22;2263;54.654;9.410;2022-10-26T13:09:44;14.80;91.90
4501;DHT22;2263;54.654;9.410;2022-10-26T13:12:12;14.80;91.90
4501;DHT22;2263;54.654;9.410;2022-10-26T13:15:01;14.80;91.90
4501;DHT22;2263;54.654;9.410;2022-10-26T13:17:30;14.80;91.90
4501;DHT22;2263;54.654;9.410;2022-10-26T13:20:05;14.80;91.90
4501;DHT22;2263;54.654;9.410;2022-10-26T13:22:44;14.80;91.90
4501;DHT22;2263;54.654;9.410;2022-10-26T13:25:22;14.80;91.90
4501;DHT22;2263;54.654;9.410;2022-10-26T13:28:45;14.80;91.90
4501;DHT22;2263;54.654;9.410;2022-10-26T13:30:46;14.80;91.90
4501;DHT22;2263;54.654;9.410;2022-10-26T13:33:18;14.80;91.90
4501;DHT22;2263;54.654;9.410;2022-10-26T13:35:50;14.80;91.90
4501;DHT22;2263;54.654;9.410;2022-10-26T13:38:22;14.80;91.90
4501;DHT22;2263;54.654;9.410;2022-10-26T13:40:54;14.80;91.90
4501;DHT22;2263;54.654;9.410;2022-10-26T13:43:25;14.80;91.90
4501;DHT22;2263;54.654;9.410;2022-10-26T13:45:55;14.80;91.90
4501;DHT22;2263;54.654;9.410;2022-10-26T13:48:38;14.80;91.80
4501;DHT22;2263;54.654;9.410;2022-10-26T13:51:37;14.80;91.80
4501;DHT22;2263;54.654;9.410;2022-10-26T13:57:18;14.80;91.80
4501;DHT22;2263;54.654;9.410;2022-10-26T13:59:45;14.80;91.70
4501;DHT22;2263;54.654;9.410;2022-10-26T14:02:23;14.80;91.80
4501;DHT22;2263;54.654;9.410;2022-10-26T14:04:59;14.90;91.90
4501;DHT22;2263;54.654;9.410;2022-10-26T14:10:03;14.80;91.80
4501;DHT22;2263;54.654;9.410;2022-10-26T14:12:32;14.80;91.70
4501;DHT22;2263;54.654;9.410;2022-10-26T14:15:06;14.80;91.80
4501;DHT22;2263;54.654;9.410;2022-10-26T14:17:34;14.90;91.80
4501;DHT22;2263;54.654;9.410;2022-10-26T14:20:02;14.90;91.70
4501;DHT22;2263;54.654;9.410;2022-10-26T14:22:30;14.90;91.90
4501;DHT22;2263;54.654;9.410;2022-10-26T14:24:59;15.00;92.40
4501;DHT22;2263;54.654;9.410;2022-10-26T14:27:31;15.10;92.30
4501;DHT22;2263;54.654;9.410;2022-10-26T14:29:59;15.20;92.30
4501;DHT22;2263;54.654;9.410;2022-10-26T14:32:47;15.20;92.10
4501;DHT22;2263;54.654;9.410;2022-10-26T14:35:16;15.20;92.10
4501;DHT22;2263;54.654;9.410;2022-10-26T14:37:49;15.20;92.00
4501;DHT22;2263;54.654;9.410;2022-10-26T14:40:20;15.30;92.00
4501;DHT22;2263;54.654;9.410;2022-10-26T14:42:50;15.30;92.00
4501;DHT22;2263;54.654;9.410;2022-10-26T14:45:34;15.30;91.90
4501;DHT22;2263;54.654;9.410;2022-10-26T14:48:34;15.30;91.90
4501;DHT22;2263;54.654;9.410;2022-10-26T14:51:02;15.30;91.90
4501;DHT22;2263;54.654;9.410;2022-10-26T14:53:36;15.30;91.90
4501;DHT22;2263;54.654;9.410;2022-10-26T14:56:05;15.30;91.90
4501;DHT22;2263;54.654;9.410;2022-10-26T14:58:42;15.30;92.20
4501;DHT22;2263;54.654;9.410;2022-10-26T15:01:26;15.30;91.90
4501;DHT22;2263;54.654;9.410;2022-10-26T15:04:00;15.40;91.90
4501;DHT22;2263;54.654;9.410;2022-10-26T15:06:28;15.40;91.90
4501;DHT22;2263;54.654;9.410;2022-10-26T15:08:57;15.40;91.90
4501;DHT22;2263;54.654;9.410;2022-10-26T15:11:28;15.30;91.80
4501;DHT22;2263;54.654;9.410;2022-10-26T15:13:57;15.40;91.90
4501;DHT22;2263;54.654;9.410;2022-10-26T15:16:30;15.40;91.80
4501;DHT22;2263;54.654;9.410;2022-10-26T15:19:09;15.40;91.80
4501;DHT22;2263;54.654;9.410;2022-10-26T15:21:47;15.40;91.80
4501;DHT22;2263;54.654;9.410;2022-10-26T15:26:58;15.40;91.80
4501;DHT22;2263;54.654;9.410;2022-10-26T15:29:44;15.40;91.80
4501;DHT22;2263;54.654;9.410;2022-10-26T15:32:30;15.40;91.80
4501;DHT22;2263;54.654;9.410;2022-10-26T15:35:26;15.40;91.80
4501;DHT22;2263;54.654;9.410;2022-10-26T15:37:54;15.40;91.80
4501;DHT22;2263;54.654;9.410;2022-10-26T15:40:24;15.40;91.80
4501;DHT22;2263;54.654;9.410;2022-10-26T15:42:58;15.40;91.80
4501;DHT22;2263;54.654;9.410;2022-10-26T15:45:30;15.40;91.80
4501;DHT22;2263;54.654;9.410;2022-10-26T15:48:18;15.40;91.80
4501;DHT22;2263;54.654;9.410;2022-10-26T15:51:02;15.40;91.80
4501;DHT22;2263;54.654;9.410;2022-10-26T15:53:29;15.40;91.80
4501;DHT22;2263;54.654;9.410;2022-10-26T15:55:58;15.40;91.70
4501;DHT22;2263;54.654;9.410;2022-10-26T15:58:27;15.40;91.80
4501;DHT22;2263;54.654;9.410;2022-10-26T16:00:54;15.40;91.70
4501;DHT22;2263;54.654;9.410;2022-10-26T16:03:23;15.40;91.70
4501;DHT22;2263;54.654;9.410;2022-10-26T16:05:56;15.40;91.70
4501;DHT22;2263;54.654;9.410;2022-10-26T16:08:26;15.40;91.70
4501;DHT22;2263;54.654;9.410;2022-10-26T16:10:54;15.30;91.70
4501;DHT22;2263;54.654;9.410;2022-10-26T16:13:21;15.30;91.70
4501;DHT22;2263;54.654;9.410;2022-10-26T16:15:48;15.30;91.60
4501;DHT22;2263;54.654;9.410;2022-10-26T16:18:15;15.30;91.70
4501;DHT22;2263;54.654;9.410;2022-10-26T16:20:44;15.30;91.70
4501;DHT22;2263;54.654;9.410;2022-10-26T16:23:12;15.30;91.70
4501;DHT22;2263;54.654;9.410;2022-10-26T16:25:43;15.30;91.60
4501;DHT22;2263;54.654;9.410;2022-10-26T16:28:13;15.30;91.60
4501;DHT22;2263;54.654;9.410;2022-10-26T16:30:41;15.30;91.60
4501;DHT22;2263;54.654;9.410;2022-10-26T16:33:09;15.30;91.70
4501;DHT22;2263;54.654;9.410;2022-10-26T16:35:37;15.30;91.60
4501;DHT22;2263;54.654;9.410;2022-10-26T16:38:04;15.30;91.60
4501;DHT22;2263;54.654;9.410;2022-10-26T16:40:32;15.30;91.70
4501;DHT22;2263;54.654;9.410;2022-10-26T16:43:00;15.30;91.60
4501;DHT22;2263;54.654;9.410;2022-10-26T16:45:27;15.30;91.60
4501;DHT22;2263;54.654;9.410;2022-10-26T16:47:54;15.20;91.50
4501;DHT22;2263;54.654;9.410;2022-10-26T16:50:21;15.20;91.50
4501;DHT22;2263;54.654;9.410;2022-10-26T16:52:49;15.20;91.50
4501;DHT22;2263;54.654;9.410;2022-10-26T16:55:16;15.20;91.50
4501;DHT22;2263;54.654;9.410;2022-10-26T16:57:43;15.20;91.50
4501;DHT22;2263;54.654;9.410;2022-10-26T17:00:10;15.20;91.40
4501;DHT22;2263;54.654;9.410;2022-10-26T17:02:38;15.20;91.40
4501;DHT22;2263;54.654;9.410;2022-10-26T17:05:06;15.20;91.40
4501;DHT22;2263;54.654;9.410;2022-10-26T17:07:34;15.20;91.50
4501;DHT22;2263;54.654;9.410;2022-10-26T17:10:01;15.20;91.40
4501;DHT22;2263;54.654;9.410;2022-10-26T17:12:29;15.20;91.40
4501;DHT22;2263;54.654;9.410;2022-10-26T17:14:57;15.20;91.40
4501;DHT22;2263;54.654;9.410;2022-10-26T17:17:26;15.20;91.40
4501;DHT22;2263;54.654;9.410;2022-10-26T17:19:53;15.20;91.50
4501;DHT22;2263;54.654;9.410;2022-10-26T17:22:21;15.20;91.40
4501;DHT22;2263;54.654;9.410;2022-10-26T17:24:48;15.20;91.30
4501;DHT22;2263;54.654;9.410;2022-10-26T17:27:15;15.20;91.40
4501;DHT22;2263;54.654;9.410;2022-10-26T17:29:43;15.20;91.50
4501;DHT22;2263;54.654;9.410;2022-10-26T17:32:10;15.20;91.40
4501;DHT22;2263;54.654;9.410;2022-10-26T17:34:39;15.20;91.40
4501;DHT22;2263;54.654;9.410;2022-10-26T17:37:06;15.10;91.40
4501;DHT22;2263;54.654;9.410;2022-10-26T17:39:33;15.20;91.30
4501;DHT22;2263;54.654;9.410;2022-10-26T17:42:00;15.20;91.40
4501;DHT22;2263;54.654;9.410;2022-10-26T17:44:27;15.20;91.50
4501;DHT22;2263;54.654;9.410;2022-10-26T17:46:54;15.20;91.40
4501;DHT22;2263;54.654;9.410;2022-10-26T17:49:22;15.20;91.40
4501;DHT22;2263;54.654;9.410;2022-10-26T17:51:53;15.20;91.40
4501;DHT22;2263;54.654;9.410;2022-10-26T17:54:20;15.10;91.40
4501;DHT22;2263;54.654;9.410;2022-10-26T17:56:48;15.20;91.50
4501;DHT22;2263;54.654;9.410;2022-10-26T17:59:15;15.20;91.50
4501;DHT22;2263;54.654;9.410;2022-10-26T18:01:44;15.20;91.40
4501;DHT22;2263;54.654;9.410;2022-10-26T18:04:12;15.10;91.50
4501;DHT22;2263;54.654;9.410;2022-10-26T18:06:39;15.10;91.40
4501;DHT22;2263;54.654;9.410;2022-10-26T18:09:06;15.10;91.40
4501;DHT22;2263;54.654;9.410;2022-10-26T18:11:33;15.10;91.40
4501;DHT22;2263;54.654;9.410;2022-10-26T18:14:00;15.10;91.50
4501;DHT22;2263;54.654;9.410;2022-10-26T18:16:28;15.10;91.60
4501;DHT22;2263;54.654;9.410;2022-10-26T18:18:58;15.10;91.50
4501;DHT22;2263;54.654;9.410;2022-10-26T18:21:30;15.20;91.50
4501;DHT22;2263;54.654;9.410;2022-10-26T18:23:58;15.20;91.60
4501;DHT22;2263;54.654;9.410;2022-10-26T18:26:26;15.10;91.50
4501;DHT22;2263;54.654;9.410;2022-10-26T18:28:58;15.10;91.60
4501;DHT22;2263;54.654;9.410;2022-10-26T18:31:28;15.10;91.60
4501;DHT22;2263;54.654;9.410;2022-10-26T18:33:56;15.10;91.60
4501;DHT22;2263;54.654;9.410;2022-10-26T18:36:24;15.10;91.60
4501;DHT22;2263;54.654;9.410;2022-10-26T18:38:52;15.10;91.70
4501;DHT22;2263;54.654;9.410;2022-10-26T18:41:21;15.10;91.60
4501;DHT22;2263;54.654;9.410;2022-10-26T18:43:51;15.10;91.70
4501;DHT22;2263;54.654;9.410;2022-10-26T18:46:21;15.10;91.70
4501;DHT22;2263;54.654;9.410;2022-10-26T18:48:57;15.10;91.70
4501;DHT22;2263;54.654;9.410;2022-10-26T18:51:30;15.10;91.70
4501;DHT22;2263;54.654;9.410;2022-10-26T18:53:58;15.10;91.70
4501;DHT22;2263;54.654;9.410;2022-10-26T18:56:26;15.10;91.80
4501;DHT22;2263;54.654;9.410;2022-10-26T18:58:57;15.10;91.80
4501;DHT22;2263;54.654;9.410;2022-10-26T19:01:30;15.10;91.80
4501;DHT22;2263;54.654;9.410;2022-10-26T19:04:03;15.10;92.10
4501;DHT22;2263;54.654;9.410;2022-10-26T19:06:39;15.10;91.70
4501;DHT22;2263;54.654;9.410;2022-10-26T19:09:07;15.10;91.80
4501;DHT22;2263;54.654;9.410;2022-10-26T19:11:36;15.10;91.80
4501;DHT22;2263;54.654;9.410;2022-10-26T19:14:04;15.10;91.80
4501;DHT22;2263;54.654;9.410;2022-10-26T19:16:31;15.10;91.80
4501;DHT22;2263;54.654;9.410;2022-10-26T19:19:12;15.10;91.80
4501;DHT22;2263;54.654;9.410;2022-10-26T19:21:39;15.10;91.80
4501;DHT22;2263;54.654;9.410;2022-10-26T19:24:11;15.10;91.80
4501;DHT22;2263;54.654;9.410;2022-10-26T19:26:39;15.10;91.80
4501;DHT22;2263;54.654;9.410;2022-10-26T19:29:11;15.10;91.90
4501;DHT22;2263;54.654;9.410;2022-10-26T19:31:43;15.10;91.90